Time;durP1;ratioP1;P1;durP2;ratioP2;P2;SDS_P1;SDS_P2;PMS_P1;PMS_P2;Temp;Humidity;BMP_temperature;BMP_pressure;BME280_temperature;BME280_humidity;BME280_pressure;Samples;Min_cycle;Max_cycle;Signal;HPM_P1;HPM_P2
2022/03/23 00:00:27;;;;;;;19.30;11.15;;;;;;;9.02;57.11;102771.56;4972725;28;104111;-50
2022/03/23 00:02:55;;;;;;;16.23;10.40;;;;;;;9.01;57.08;102772.56;4984155;28;102154;-50
2022/03/23 00:05:25;;;;;;;16.60;10.48;;;;;;;9.01;57.01;102761.72;4992736;28;102223;-50
2022/03/23 00:08:01;;;;;;;;;;;;;;;9.01;56.59;102767.13;4992745;28;101975;-50
2022/03/23 00:10:28;;;;;;;14.90;9.70;;;;;;;9.00;56.22;102758.16;4992728;28;103955;-49
2022/03/23 00:12:57;;;;;;;16.70;10.23;;;;;;;9.01;56.29;102761.72;4992628;28;101836;-49
2022/03/23 00:15:24;;;;;;;19.48;11.38;;;;;;;9.01;56.86;102753.56;4982663;28;102511;-50
2022/03/23 00:17:51;;;;;;;18.38;10.40;;;;;;;9.01;57.11;102761.72;4986205;28;102363;-49
2022/03/23 00:20:18;;;;;;;16.90;10.90;;;;;;;9.01;56.77;102762.53;4991416;28;103897;-50
2022/03/23 00:22:47;;;;;;;16.90;10.75;;;;;;;9.00;56.47;102760.88;4993812;28;102269;-50
2022/03/23 00:25:14;;;;;;;15.35;10.13;;;;;;;9.00;56.38;102758.16;4993169;28;102041;-50
2022/03/23 00:27:40;;;;;;;15.18;10.07;;;;;;;9.00;57.04;102758.16;4989428;28;102574;-50
2022/03/23 00:30:09;;;;;;;16.90;10.75;;;;;;;9.00;56.83;102750.00;4975159;28;103921;-50
2022/03/23 00:32:36;;;;;;;15.68;11.02;;;;;;;9.01;56.25;102756.28;4977090;28;101840;-50
2022/03/23 00:35:03;;;;;;;15.32;10.10;;;;;;;9.00;56.93;102752.72;4996126;28;102025;-50
2022/03/23 00:37:30;;;;;;;17.27;11.10;;;;;;;9.00;57.25;102758.16;4981105;28;102499;-50
2022/03/23 00:39:58;;;;;;;17.48;10.18;;;;;;;9.00;56.76;102754.63;4972906;28;103874;-50
2022/03/23 00:42:25;;;;;;;15.82;10.45;;;;;;;9.00;57.19;102747.31;4974016;28;102257;-50
2022/03/23 00:44:52;;;;;;;16.77;10.68;;;;;;;8.99;56.62;102748.34;4973295;28;102135;-50
2022/03/23 00:47:19;;;;;;;17.55;10.55;;;;;;;9.00;57.13;102744.59;4987496;28;102402;-50
2022/03/23 00:49:46;;;;;;;19.50;10.93;;;;;;;9.00;56.66;102746.47;4993042;28;103998;-58
2022/03/23 00:52:12;;;;;;;17.48;10.38;;;;;;;9.00;56.55;102749.19;4993275;28;101954;-50
2022/03/23 00:54:40;;;;;;;19.55;10.77;;;;;;;9.00;57.12;102746.47;4991880;28;102245;-49
2022/03/23 00:57:08;;;;;;;19.55;11.38;;;;;;;9.00;56.25;102747.31;4993761;28;102095;-50
2022/03/23 00:59:35;;;;;;;16.47;10.20;;;;;;;9.00;56.77;102743.75;4994250;28;104004;-50
2022/03/23 01:02:02;;;;;;;19.05;11.35;;;;;;;8.99;57.32;102745.63;5003358;28;102473;-50
2022/03/23 01:04:30;;;;;;;16.10;10.90;;;;;;;9.00;56.74;102743.75;4988924;28;102261;-49
2022/03/23 01:06:58;;;;;;;18.25;11.07;;;;;;;8.99;57.23;102737.50;4981436;28;102373;-49
2022/03/23 01:09:25;;;;;;;15.68;9.95;;;;;;;8.99;56.43;102736.66;4987874;28;103530;-50
2022/03/23 01:11:54;;;;;;;15.45;10.35;;;;;;;9.00;56.63;102735.59;4977821;28;102028;-50
2022/03/23 01:14:24;;;;;;;17.70;10.80;;;;;;;8.99;57.17;102731.22;4992448;28;102268;-50
2022/03/23 01:16:52;;;;;;;15.98;10.73;;;;;;;8.99;57.56;102732.06;4989520;28;102590;-50
2022/03/23 01:19:25;;;;;;;15.02;10.60;;;;;;;8.99;57.09;102731.22;4971948;28;103962;-50
2022/03/23 01:21:53;;;;;;;16.42;10.63;;;;;;;8.99;56.86;102731.22;4972583;28;102434;-49
2022/03/23 01:24:20;;;;;;;16.52;10.80;;;;;;;8.99;56.60;102731.22;4976535;28;102561;-50
2022/03/23 01:26:47;;;;;;;15.52;10.20;;;;;;;8.99;56.92;102731.22;4986730;28;102148;-49
2022/03/23 01:29:15;;;;;;;15.65;9.82;;;;;;;8.98;56.90;102730.41;4992111;28;104024;-50
2022/03/23 01:31:43;;;;;;;16.77;10.48;;;;;;;8.99;57.32;102732.06;4993209;28;101991;-50
2022/03/23 01:34:09;;;;;;;14.32;9.82;;;;;;;8.99;57.04;102725.78;4993113;28;102402;-50
2022/03/23 01:36:36;;;;;;;16.02;10.77;;;;;;;8.99;57.45;102725.78;4990823;28;102204;-50
2022/03/23 01:39:03;;;;;;;17.27;10.60;;;;;;;8.98;57.08;102718.66;4991872;28;104168;-50
2022/03/23 01:41:35;;;;;;;18.33;10.75;;;;;;;8.99;56.45;102725.78;4991816;28;102496;-50
2022/03/23 01:44:11;;;;;;;16.70;10.27;;;;;;;8.99;56.40;102725.78;4999399;28;101824;-50
2022/03/23 01:46:38;;;;;;;15.75;10.13;;;;;;;8.98;56.62;102724.09;5013562;28;102365;-50
2022/03/23 01:49:06;;;;;;;16.33;10.25;;;;;;;8.99;56.58;102725.78;5011851;28;104024;-50
2022/03/23 01:51:33;;;;;;;15.63;9.57;;;;;;;8.97;57.21;102723.28;5002621;28;102042;-49
2022/03/23 01:54:00;;;;;;;15.70;9.90;;;;;;;8.98;57.24;102726.81;4991949;28;101859;-50
2022/03/23 01:56:27;;;;;;;14.85;10.07;;;;;;;8.98;56.70;102721.38;4993097;28;102411;-50
2022/03/23 01:58:54;;;;;;;16.23;10.27;;;;;;;8.98;56.62;102726.81;4991326;28;104108;-50
2022/03/23 02:01:21;;;;;;;14.93;9.55;;;;;;;8.97;56.67;102715.13;4991107;28;102463;-50
2022/03/23 02:03:48;;;;;;;15.98;10.27;;;;;;;8.97;56.63;102720.56;4991126;28;102269;-49
2022/03/23 02:06:16;;;;;;;16.48;10.20;;;;;;;8.97;57.60;102725.16;4992860;28;102733;-50
2022/03/23 02:08:57;;;;;;;15.82;10.07;;;;;;;8.99;56.98;102723.09;4990517;28;104251;-50
2022/03/23 02:11:25;;;;;;;15.52;9.65;;;;;;;8.97;56.84;102723.28;4991647;28;102775;-50
2022/03/23 02:13:53;;;;;;;17.00;10.15;;;;;;;8.97;57.08;102717.84;4982847;28;102172;-49
2022/03/23 02:16:20;;;;;;;17.05;9.45;;;;;;;8.96;56.76;102727.03;4988555;28;102210;-49
2022/03/23 02:18:54;;;;;;;16.63;9.65;;;;;;;8.97;57.28;102723.28;4982481;28;103541;-50
2022/03/23 02:21:22;;;;;;;17.20;9.57;;;;;;;8.97;56.65;102734.13;4971774;28;101936;-50
2022/03/23 02:23:50;;;;;;;15.20;9.50;;;;;;;8.97;57.12;102727.88;4971269;28;102611;-50
2022/03/23 02:26:17;;;;;;;14.25;9.75;;;;;;;8.97;57.60;102733.31;4972797;28;102014;-50
2022/03/23 02:28:44;;;;;;;15.43;8.95;;;;;;;8.97;57.01;102730.59;4970628;28;103908;-50
2022/03/23 02:31:12;;;;;;;16.05;9.27;;;;;;;8.98;57.22;102734.97;4971385;28;102334;-50
2022/03/23 02:33:39;;;;;;;16.27;9.77;;;;;;;8.97;57.37;102722.44;4985606;28;102323;-50
2022/03/23 02:36:06;;;;;;;15.63;9.50;;;;;;;8.97;56.74;102727.88;4992313;28;102183;-50
2022/03/23 02:38:34;;;;;;;13.25;8.48;;;;;;;8.97;56.84;102725.16;4990293;28;103858;-51
2022/03/23 02:41:02;;;;;;;12.75;9.48;;;;;;;8.96;56.95;102727.03;4992037;28;102467;-50
2022/03/23 02:43:28;;;;;;;12.27;8.52;;;;;;;8.96;57.17;102720.78;4990907;28;102039;-50
2022/03/23 02:45:55;;;;;;;15.07;9.70;;;;;;;8.97;57.54;102725.16;4992157;28;102207;-50
2022/03/23 02:48:21;;;;;;;13.35;8.55;;;;;;;8.96;57.12;102728.94;4990135;28;104093;-50
2022/03/23 02:50:48;;;;;;;14.73;8.57;;;;;;;8.95;56.72;102719.94;4988697;28;102482;-49
2022/03/23 03:01:54;;;;;;;13.60;9.48;;;;;;;8.95;57.26;102725.38;4975472;28;102607;-50
2022/03/23 03:04:22;;;;;;;15.05;8.65;;;;;;;8.96;57.82;102726.22;4990983;28;101844;-54
2022/03/23 03:06:49;;;;;;;13.10;8.38;;;;;;;8.95;56.77;102717.25;4986501;28;102766;-50
2022/03/23 03:09:21;;;;;;;11.23;7.82;;;;;;;8.95;57.27;102719.13;4981958;28;104417;-50
2022/03/23 03:11:49;;;;;;;11.13;7.68;;;;;;;8.95;57.06;102719.94;4985052;28;103443;-50
2022/03/23 03:14:17;;;;;;;14.50;9.02;;;;;;;8.96;57.25;102720.78;4978655;28;102135;-50
2022/03/23 03:16:43;;;;;;;13.35;8.38;;;;;;;8.96;56.84;102720.78;4972426;28;102647;-49
2022/03/23 03:19:11;;;;;;;12.45;7.90;;;;;;;8.95;57.74;102719.94;4977295;28;104088;-50
2022/03/23 03:21:38;;;;;;;10.98;8.25;;;;;;;8.94;56.85;102718.25;4983945;28;102255;-50
2022/03/23 03:24:06;;;;;;;12.02;7.63;;;;;;;8.95;57.04;102719.94;4986768;28;102012;-50
2022/03/23 03:26:33;;;;;;;12.27;8.30;;;;;;;8.95;57.08;102716.41;4971726;28;102116;-50
2022/03/23 03:29:02;;;;;;;12.90;8.15;;;;;;;8.94;57.55;102720.97;4981392;28;104270;-50
2022/03/23 03:31:29;;;;;;;10.80;7.45;;;;;;;8.95;56.75;102719.13;4993157;28;102387;-50
2022/03/23 03:33:56;;;;;;;12.30;7.70;;;;;;;8.95;57.70;102716.41;4994050;28;101943;-50
2022/03/23 03:36:22;;;;;;;11.95;7.50;;;;;;;8.95;57.53;102713.69;4995478;28;101994;-50
2022/03/23 03:38:49;;;;;;;12.88;7.82;;;;;;;8.94;57.23;102720.97;4983581;28;103905;-50
2022/03/23 03:41:16;;;;;;;10.48;7.15;;;;;;;8.95;57.04;102719.94;4994457;28;102067;-50
2022/03/23 03:43:44;;;;;;;13.40;8.18;;;;;;;8.95;57.14;102714.53;4992383;28;102330;-50
2022/03/23 03:46:12;;;;;;;11.95;7.68;;;;;;;8.94;57.05;102710.13;4976392;28;102128;-50
2022/03/23 03:48:40;;;;;;;12.20;7.47;;;;;;;8.94;57.28;102709.28;4973935;28;103872;-49
2022/03/23 03:51:08;;;;;;;13.10;8.00;;;;;;;8.94;57.59;102715.53;4974694;28;102185;-50
2022/03/23 03:53:35;;;;;;;12.05;7.63;;;;;;;8.94;57.11;102712.00;4973448;28;102545;-50
2022/03/23 03:56:04;;;;;;;12.27;7.50;;;;;;;8.93;57.18;102713.06;4974866;28;102229;-50
2022/03/23 03:58:30;;;;;;;11.57;7.90;;;;;;;8.94;56.97;102712.00;4983978;28;103918;-50
2022/03/23 04:00:57;;;;;;;11.98;7.88;;;;;;;8.94;57.04;102709.28;4992928;28;101958;-50
2022/03/23 04:03:26;;;;;;;11.40;7.72;;;;;;;8.94;57.77;102709.28;4993578;28;102253;-50
2022/03/23 04:05:52;;;;;;;12.97;7.53;;;;;;;8.95;57.51;102710.97;4993762;28;103005;-50
2022/03/23 04:08:18;;;;;;;10.70;7.20;;;;;;;8.94;57.77;102712.00;4981702;28;103894;-50
2022/03/23 04:10:56;;;;;;;11.43;7.15;;;;;;;8.94;57.18;102712.00;4973083;28;102272;-50
2022/03/23 04:13:23;;;;;;;12.75;7.03;;;;;;;8.92;57.08;102709.50;4973185;28;102223;-50
2022/03/23 04:15:50;;;;;;;12.32;6.88;;;;;;;8.93;57.43;102711.16;4978080;28;102459;-50
2022/03/23 04:18:17;;;;;;;10.80;7.18;;;;;;;8.93;57.17;102722.03;4981273;28;103986;-50
2022/03/23 04:20:46;;;;;;;12.20;6.88;;;;;;;8.93;57.57;102716.59;4993374;28;102345;-50
2022/03/23 04:23:13;;;;;;;11.77;6.70;;;;;;;8.93;56.79;102713.88;4992056;28;102183;-51
2022/03/23 04:25:39;;;;;;;12.32;7.45;;;;;;;8.93;57.67;102710.34;4994381;28;102008;-49
2022/03/23 04:28:06;;;;;;;10.95;6.47;;;;;;;8.93;57.28;102710.34;4992802;28;104075;-50
2022/03/23 04:30:33;;;;;;;12.55;7.10;;;;;;;8.93;56.83;102713.06;4992828;28;102382;-50
2022/03/23 04:33:01;;;;;;;11.27;7.50;;;;;;;8.93;57.07;102713.06;4992654;28;102606;-50
2022/03/23 04:35:29;;;;;;;10.57;6.35;;;;;;;8.94;57.42;102709.28;4992591;28;102712;-50
2022/03/23 04:37:57;;;;;;;11.13;6.28;;;;;;;8.94;57.39;102712.00;4992569;28;103896;-50
2022/03/23 04:40:25;;;;;;;11.68;6.93;;;;;;;8.94;57.17;102717.44;4989767;28;103618;-49
2022/03/23 04:42:53;;;;;;;10.45;6.93;;;;;;;8.95;57.16;102716.41;4992439;28;102517;-49
2022/03/23 04:45:20;;;;;;;9.90;6.20;;;;;;;8.94;57.78;102712.00;4994331;28;102253;-50
2022/03/23 04:47:47;;;;;;;9.07;6.10;;;;;;;8.96;57.78;102715.34;4991995;28;103834;-50
2022/03/23 04:50:14;;;;;;;8.57;6.40;;;;;;;8.96;57.47;102715.34;4993097;28;102821;-50
2022/03/23 04:52:42;;;;;;;10.07;6.50;;;;;;;8.97;57.86;102714.28;4990602;28;101878;-50
2022/03/23 04:55:12;;;;;;;9.35;6.00;;;;;;;8.97;57.22;102709.69;4992911;28;102225;-50
2022/03/23 04:57:39;;;;;;;;;;;;;;;8.98;57.43;102707.81;4992279;28;103886;-50
2022/03/23 05:00:10;;;;;;;7.75;6.03;;;;;;;8.98;58.10;102713.25;4988588;28;102632;-49
2022/03/23 05:02:40;;;;;;;9.40;5.85;;;;;;;9.00;57.21;102719.31;4990036;28;101843;-50
2022/03/23 05:05:11;;;;;;;10.10;6.50;;;;;;;9.00;57.66;102709.28;4998310;28;102439;-50
2022/03/23 05:07:58;;;;;;;9.48;6.05;;;;;;;9.01;57.50;102715.53;4985633;28;104709;-50
2022/03/23 05:10:27;;;;;;;10.23;6.50;;;;;;;9.03;58.10;102718.88;4974335;28;102253;-50
2022/03/23 05:12:57;;;;;;;9.93;6.43;;;;;;;9.04;57.53;102721.38;4991372;28;102317;-50
2022/03/23 05:15:24;;;;;;;9.10;6.20;;;;;;;9.05;58.02;102708.63;4991777;28;102519;-50
2022/03/23 05:17:50;;;;;;;10.07;6.85;;;;;;;9.06;57.50;102715.75;4972092;28;103965;-50
2022/03/23 05:20:18;;;;;;;10.40;6.47;;;;;;;9.07;57.34;102714.69;4973220;28;102321;-50
2022/03/23 05:22:46;;;;;;;8.75;6.15;;;;;;;9.08;57.25;102709.03;4990634;28;101835;-50
2022/03/23 05:25:14;;;;;;;10.30;6.50;;;;;;;9.10;57.92;102711.56;4990991;28;102715;-50
2022/03/23 05:27:43;;;;;;;10.90;6.30;;;;;;;9.11;57.38;102718.66;4974556;28;102966;-51
2022/03/23 05:30:11;;;;;;;9.23;6.18;;;;;;;9.11;57.05;102713.22;4972568;28;103556;-50
2022/03/23 05:32:41;;;;;;;9.82;6.35;;;;;;;9.12;57.89;102710.31;4992905;28;103407;-50
2022/03/23 05:35:09;;;;;;;9.25;6.72;;;;;;;9.13;57.06;102722.00;4983148;28;102125;-50
2022/03/23 05:37:37;;;;;;;9.10;6.13;;;;;;;9.13;56.99;102711.13;4971853;28;103923;-50
2022/03/23 05:40:04;;;;;;;9.77;6.20;;;;;;;9.14;57.52;102720.94;4975828;28;102752;-50
2022/03/23 05:42:31;;;;;;;9.85;6.35;;;;;;;9.13;57.61;102722.00;4971853;28;102004;-50
2022/03/23 05:44:59;;;;;;;11.60;6.38;;;;;;;9.15;57.61;102714.47;4984859;28;102603;-50
2022/03/23 05:47:26;;;;;;;9.68;5.80;;;;;;;9.15;57.18;102719.91;4990586;28;103898;-50
2022/03/23 05:49:53;;;;;;;9.57;6.25;;;;;;;9.14;56.96;102718.25;4993202;28;102471;-50
2022/03/23 05:52:20;;;;;;;10.57;6.15;;;;;;;9.16;57.42;102716.16;4981896;28;101929;-50
2022/03/23 05:54:46;;;;;;;9.85;6.70;;;;;;;9.13;57.17;102714.69;4976489;28;102743;-50
2022/03/23 05:57:13;;;;;;;9.60;5.93;;;;;;;9.14;56.80;102715.53;4978293;28;102994;-50
2022/03/23 05:59:40;;;;;;;9.75;6.20;;;;;;;9.13;57.61;102717.41;4993441;28;102411;-50
2022/03/23 06:02:08;;;;;;;10.25;6.45;;;;;;;9.13;57.60;102711.97;4993202;28;102489;-50
2022/03/23 06:04:34;;;;;;;9.40;5.88;;;;;;;9.12;57.40;102713.03;4989192;28;102125;-53
2022/03/23 06:07:01;;;;;;;8.73;6.18;;;;;;;9.12;56.89;102709.44;4973280;28;104270;-50
2022/03/23 06:09:28;;;;;;;8.35;5.63;;;;;;;9.12;57.49;102704.03;4992090;28;103003;-50
2022/03/23 06:12:00;;;;;;;9.38;6.28;;;;;;;9.12;56.88;102704.03;4991459;28;101988;-50
2022/03/23 06:14:27;;;;;;;9.43;5.50;;;;;;;9.11;57.88;102707.78;4993092;28;102533;-51
2022/03/23 06:16:55;;;;;;;11.13;6.10;;;;;;;9.11;56.72;102702.34;4989092;28;103895;-50
2022/03/23 06:19:23;;;;;;;8.77;5.32;;;;;;;9.11;57.55;102707.78;4992155;28;102530;-50
2022/03/23 06:21:51;;;;;;;10.95;6.50;;;;;;;9.10;56.70;102706.97;4991620;28;102146;-50
2022/03/23 06:24:17;;;;;;;8.25;5.57;;;;;;;9.09;56.78;102710.72;4988216;28;102436;-50
2022/03/23 06:26:44;;;;;;;7.78;5.47;;;;;;;9.11;56.70;102705.06;4989793;28;103928;-50
2022/03/23 06:29:11;;;;;;;10.05;5.95;;;;;;;9.09;57.30;102705.31;4989156;28;102531;-50
2022/03/23 06:31:37;;;;;;;9.13;5.65;;;;;;;9.09;57.39;102693.59;4986712;28;102877;-50
2022/03/23 06:34:04;;;;;;;11.07;5.78;;;;;;;9.10;57.40;102700.69;4989353;28;102181;-50
2022/03/23 06:36:35;;;;;;;9.15;6.10;;;;;;;9.11;57.21;102710.50;4992616;28;103826;-49
2022/03/23 06:39:02;;;;;;;8.75;5.47;;;;;;;9.10;56.28;102700.69;4981294;28;102497;-50
2022/03/23 06:41:29;;;;;;;9.48;6.43;;;;;;;9.10;56.84;102695.25;5000856;28;102350;-50
2022/03/23 06:43:55;;;;;;;8.80;6.32;;;;;;;9.10;56.24;102700.69;4992210;28;102170;-51
2022/03/23 06:46:22;;;;;;;9.75;5.70;;;;;;;9.09;56.79;102710.72;4986550;28;104187;-49
2022/03/23 06:48:50;;;;;;;12.68;6.40;;;;;;;9.10;56.28;102701.53;4990109;28;102355;-50
2022/03/23 06:51:17;;;;;;;12.07;6.32;;;;;;;9.10;56.96;102700.69;4991447;28;102385;-49
2022/03/23 06:53:46;;;;;;;10.00;5.70;;;;;;;9.11;56.31;102702.34;4991832;28;102320;-49
2022/03/23 06:56:13;;;;;;;9.10;6.13;;;;;;;9.12;56.37;102698.59;4977835;28;104227;-50
2022/03/23 06:58:39;;;;;;;8.23;5.57;;;;;;;9.11;55.69;102705.06;4990959;28;102058;-49
2022/03/23 07:01:06;;;;;;;10.30;5.82;;;;;;;9.12;56.40;102709.44;4979290;28;102167;-50
2022/03/23 07:03:33;;;;;;;8.63;5.35;;;;;;;9.11;56.65;102699.66;4984210;28;102227;-50
2022/03/23 07:05:59;;;;;;;10.50;5.30;;;;;;;9.12;55.66;102698.59;4976380;28;103911;-49
2022/03/23 07:11:14;;;;;;;10.07;5.60;;;;;;;9.12;55.42;102694.00;4981877;28;102586;-50
2022/03/23 07:13:56;;;;;;;9.00;5.63;;;;;;;9.14;56.21;102704.66;4995229;28;102521;-49
2022/03/23 07:16:23;;;;;;;8.18;5.30;;;;;;;9.13;55.74;102697.56;4990696;28;103926;-50
2022/03/23 07:18:52;;;;;;;8.18;5.47;;;;;;;9.14;55.90;102701.94;4988123;28;101948;-50
2022/03/23 07:21:19;;;;;;;10.38;5.75;;;;;;;9.14;55.92;102704.66;4986693;28;102355;-50
2022/03/23 07:23:47;;;;;;;9.18;5.65;;;;;;;9.15;55.51;102690.00;4995379;28;102692;-49
2022/03/23 07:26:19;;;;;;;9.13;5.07;;;;;;;9.16;55.45;102689.00;4982940;28;104055;-50
2022/03/23 07:28:45;;;;;;;8.80;5.35;;;;;;;9.18;56.00;102696.91;4974632;28;102262;-50
2022/03/23 07:31:13;;;;;;;7.93;5.13;;;;;;;9.18;55.68;102689.59;4982488;28;102403;-50
2022/03/23 07:33:40;;;;;;;7.10;5.22;;;;;;;9.19;56.23;102695.84;4994333;28;102097;-50
2022/03/23 07:36:07;;;;;;;10.27;5.25;;;;;;;9.21;55.40;102699.22;4976548;28;103902;-49
2022/03/23 07:38:35;;;;;;;9.93;5.22;;;;;;;9.20;56.13;102690.22;4993812;28;102412;-49
2022/03/23 07:41:01;;;;;;;8.23;5.47;;;;;;;9.21;55.52;102689.16;4983917;28;102331;-50
2022/03/23 07:43:30;;;;;;;8.15;5.15;;;;;;;9.22;55.95;102688.13;4992750;28;102650;-50
2022/03/23 07:45:57;;;;;;;6.72;5.10;;;;;;;9.22;55.37;102688.13;4991469;28;104149;-55
2022/03/23 07:48:24;;;;;;;8.77;5.68;;;;;;;9.22;55.75;102679.97;4994587;28;102402;-50
2022/03/23 07:50:51;;;;;;;6.43;4.72;;;;;;;9.24;55.86;102683.31;4994048;28;102294;-50
2022/03/23 07:53:18;;;;;;;7.68;4.80;;;;;;;9.25;56.07;102682.25;4994179;28;102675;-49
2022/03/23 07:55:45;;;;;;;7.55;5.00;;;;;;;9.25;56.10;102676.81;4993292;28;103112;-50
2022/03/23 07:58:12;;;;;;;8.38;5.15;;;;;;;9.27;55.84;102674.75;4993790;28;101936;-49
2022/03/23 08:00:43;;;;;;;7.38;5.03;;;;;;;9.28;55.27;102681.00;4993403;28;101935;-49
2022/03/23 08:03:10;;;;;;;6.30;4.70;;;;;;;9.28;55.26;102676.41;4993899;28;102353;-49
2022/03/23 08:05:37;;;;;;;7.80;4.65;;;;;;;9.29;55.71;102680.78;4999556;28;104001;-50
2022/03/23 08:08:07;;;;;;;9.82;5.10;;;;;;;9.30;55.66;102679.72;4983820;28;102390;-50
2022/03/23 08:10:36;;;;;;;8.57;5.35;;;;;;;9.30;55.27;102671.56;4978867;28;102356;-49
2022/03/23 08:13:03;;;;;;;6.90;4.75;;;;;;;9.31;55.03;102675.97;4994523;28;102475;-50
2022/03/23 08:15:30;;;;;;;7.82;4.65;;;;;;;9.32;54.79;102666.75;4992970;28;104073;-49
2022/03/23 08:18:00;;;;;;;6.45;4.40;;;;;;;9.32;54.72;102666.75;4979996;28;102007;-49
2022/03/23 08:20:32;;;;;;;6.40;4.50;;;;;;;9.33;54.86;102668.41;4989420;28;101972;-50
2022/03/23 08:23:06;;;;;;;7.32;4.85;;;;;;;9.33;54.29;102657.56;4994492;28;102408;-50
2022/03/23 08:25:38;;;;;;;8.95;4.95;;;;;;;9.33;54.31;102656.72;4992566;28;103824;-50
2022/03/23 08:28:09;;;;;;;9.15;4.78;;;;;;;9.33;54.68;102662.97;4993772;28;102008;-49
2022/03/23 08:30:38;;;;;;;6.05;4.68;;;;;;;9.32;54.17;102653.19;4992651;28;102266;-50
2022/03/23 08:33:06;;;;;;;7.07;4.35;;;;;;;9.33;53.90;102652.13;4991051;28;102404;-49
2022/03/23 08:35:35;;;;;;;7.40;5.15;;;;;;;9.32;54.00;102652.34;4990538;28;104102;-50
2022/03/23 08:38:01;;;;;;;7.30;4.38;;;;;;;9.32;54.17;102649.63;4992648;28;101981;-50
2022/03/23 08:40:29;;;;;;;7.57;5.25;;;;;;;9.32;54.95;102645.03;4992447;28;102406;-50
2022/03/23 08:42:58;;;;;;;6.35;4.72;;;;;;;9.32;53.92;102645.03;4993030;28;102269;-50
2022/03/23 08:45:26;;;;;;;5.65;4.38;;;;;;;9.33;54.30;102646.69;4992314;28;103945;-50
2022/03/23 08:47:54;;;;;;;6.20;4.32;;;;;;;9.32;54.31;102634.16;4993035;28;102431;-50
2022/03/23 08:50:22;;;;;;;6.82;4.68;;;;;;;9.32;53.86;102634.16;4991444;28;102422;-49
2022/03/23 08:52:48;;;;;;;9.80;4.87;;;;;;;9.33;53.93;102630.38;4993665;28;102337;-50
2022/03/23 08:55:19;;;;;;;6.85;4.60;;;;;;;9.34;54.18;102625.78;4991493;28;103978;-50
2022/03/23 08:57:47;;;;;;;10.35;4.95;;;;;;;9.34;54.33;102625.78;4991424;28;102495;-50
2022/03/23 09:00:15;;;;;;;9.32;4.95;;;;;;;9.33;53.82;102622.22;4990026;28;102418;-50
2022/03/23 09:02:41;;;;;;;8.02;4.85;;;;;;;9.34;53.89;102621.19;4979848;28;102746;-50
2022/03/23 09:05:11;;;;;;;6.95;4.63;;;;;;;9.33;54.57;102614.06;4990273;28;103819;-50
2022/03/23 09:07:40;;;;;;;7.35;4.53;;;;;;;9.32;53.88;102612.41;4990588;28;101983;-50
2022/03/23 09:10:10;;;;;;;11.10;5.07;;;;;;;9.32;53.94;102612.41;4986480;28;102638;-51
2022/03/23 09:12:38;;;;;;;10.32;4.80;;;;;;;9.32;54.40;102612.41;4992692;28;102151;-50
2022/03/23 09:15:06;;;;;;;7.18;5.07;;;;;;;9.33;53.67;102619.50;4984348;28;103859;-49
2022/03/23 09:17:34;;;;;;;152.13;14.95;;;;;;;9.33;54.59;102614.06;4975543;28;102423;-50
2022/03/23 09:20:01;;;;;;;11.02;5.00;;;;;;;9.35;54.33;102614.72;4989504;28;102447;-50
2022/03/23 09:22:28;;;;;;;19.98;4.95;;;;;;;9.36;54.01;102608.22;4993175;28;102196;-50
2022/03/23 09:24:56;;;;;;;13.13;4.93;;;;;;;9.36;53.91;102600.06;5011383;28;103943;-51
2022/03/23 09:27:23;;;;;;;8.20;4.70;;;;;;;9.37;54.17;102598.16;4990761;28;102262;-49
2022/03/23 09:29:49;;;;;;;6.57;4.72;;;;;;;9.37;54.03;102599.00;4986666;28;103175;-50
2022/03/23 09:32:17;;;;;;;6.50;4.82;;;;;;;9.38;53.69;102592.53;4993041;28;102157;-49
2022/03/23 09:34:45;;;;;;;8.20;4.50;;;;;;;9.38;52.96;102595.25;4989891;28;103970;-50
2022/03/23 09:39:59;;;;;;;8.85;4.70;;;;;;;9.39;52.80;102580.59;4990085;28;102357;-49
2022/03/23 09:42:27;;;;;;;6.53;4.95;;;;;;;9.39;52.10;102594.19;4992538;28;102162;-49
2022/03/23 09:44:56;;;;;;;7.30;4.60;;;;;;;9.41;52.28;102576.84;4989918;28;103789;-49
2022/03/23 09:47:24;;;;;;;6.85;4.40;;;;;;;9.39;51.62;102575.19;4991263;28;102351;-49
2022/03/23 09:49:51;;;;;;;10.98;4.90;;;;;;;9.41;52.57;102574.13;4989940;28;102385;-49
2022/03/23 09:52:17;;;;;;;6.20;4.30;;;;;;;9.41;52.06;102579.56;4985829;28;102358;-50
2022/03/23 09:54:45;;;;;;;7.18;4.28;;;;;;;9.41;51.68;102568.69;4970929;28;103887;-50
2022/03/23 09:57:13;;;;;;;7.82;4.75;;;;;;;9.39;51.45;102568.91;4987299;28;102388;-49
2022/03/23 09:59:41;;;;;;;6.38;4.85;;;;;;;9.39;51.40;102568.91;4994740;28;102374;-49
2022/03/23 10:03:05;;;;;;;8.55;4.53;;;;;;;9.38;52.63;102569.97;4992144;28;102273;-50
2022/03/23 10:06:12;;;;;;;6.35;4.43;;;;;;;9.37;52.51;102558.25;4988597;28;104375;-49
2022/03/23 10:09:08;;;;;;;6.20;4.25;;;;;;;9.38;52.97;102546.34;4948783;28;102397;-49
2022/03/23 10:12:42;;;;;;;6.63;4.35;;;;;;;9.38;52.25;102551.78;4987216;28;102094;-49
2022/03/23 10:15:59;;;;;;;6.13;4.13;;;;;;;9.38;52.78;102550.94;4998409;28;102658;-50
2022/03/23 10:18:53;;;;;;;8.38;4.47;;;;;;;9.39;52.70;102548.00;4986243;28;104124;-50
2022/03/23 10:21:25;;;;;;;6.57;4.45;;;;;;;9.38;51.70;102540.91;4985482;28;102071;-49
2022/03/23 10:24:35;;;;;;;6.00;4.25;;;;;;;9.39;52.24;102536.31;4985595;28;102397;-50
2022/03/23 10:27:10;;;;;;;7.35;4.30;;;;;;;9.38;52.15;102530.03;4991059;28;102555;-50
2022/03/23 10:29:47;;;;;;;6.55;3.90;;;;;;;9.37;51.26;102532.97;4995712;28;103997;-51
2022/03/23 10:32:14;;;;;;;5.45;4.20;;;;;;;9.38;51.01;102521.06;4991811;28;102374;-50
2022/03/23 10:34:44;;;;;;;7.50;4.90;;;;;;;9.37;51.72;102522.91;4990871;28;101959;-50
2022/03/23 10:37:12;;;;;;;5.75;4.53;;;;;;;9.37;51.13;102513.94;4991922;28;102153;-50
2022/03/23 10:39:39;;;;;;;6.53;4.57;;;;;;;9.36;51.12;102515.81;4987124;28;103910;-50
2022/03/23 10:42:09;;;;;;;7.38;3.90;;;;;;;9.36;51.22;102504.97;4991164;28;102663;-50
2022/03/23 10:44:36;;;;;;;7.88;4.65;;;;;;;9.35;51.77;102500.59;4990178;28;102257;-50
2022/03/23 10:47:04;;;;;;;7.40;4.78;;;;;;;9.36;51.79;102502.25;4989242;28;101951;-50
2022/03/23 10:49:33;;;;;;;;;;;;;;;9.35;52.46;102497.88;4974204;28;104384;-49
2022/03/23 10:52:09;;;;;;;5.97;3.50;;;;;;;9.36;51.94;102498.69;4975675;28;102184;-49
2022/03/23 10:54:35;;;;;;;7.45;5.00;;;;;;;9.35;51.48;102503.31;4980535;28;102396;-50
2022/03/23 10:57:02;;;;;;;6.22;3.78;;;;;;;9.35;51.18;102488.88;4985354;28;102192;-50
2022/03/23 10:59:29;;;;;;;7.25;4.30;;;;;;;9.35;50.81;102481.56;4981161;28;104098;-49
2022/03/23 11:02:01;;;;;;;9.15;4.63;;;;;;;9.34;51.34;102476.31;4985251;28;102591;-50
2022/03/23 11:04:43;;;;;;;10.00;4.95;;;;;;;9.33;50.84;102475.50;4984840;28;103813;-49
2022/03/23 11:07:23;;;;;;;6.95;4.75;;;;;;;9.33;52.05;102467.34;4978222;28;102252;-49
2022/03/23 11:15:47;;;;;;;6.13;4.43;;;;;;;9.32;51.16;102449.41;4986611;28;102140;-49
2022/03/23 11:18:16;;;;;;;5.05;4.07;;;;;;;9.32;51.26;102449.41;4989040;28;102428;-49
2022/03/23 11:20:45;;;;;;;;;;;;;;;9.32;52.12;102443.13;4984989;28;103918;-49
2022/03/23 11:23:17;;;;;;;8.32;4.55;;;;;;;9.32;51.74;102441.25;4993051;28;102408;-50
2022/03/23 11:25:44;;;;;;;6.43;4.97;;;;;;;9.31;50.73;102434.16;4970726;28;102153;-49
2022/03/23 11:28:12;;;;;;;6.38;4.43;;;;;;;9.32;51.32;102438.53;4980563;28;102210;-50
2022/03/23 11:30:39;;;;;;;8.15;4.78;;;;;;;9.31;50.60;102427.88;4971995;28;105152;-49
2022/03/23 11:33:09;;;;;;;9.68;5.13;;;;;;;9.31;49.83;102430.59;4971570;28;102517;-49
2022/03/23 11:35:39;;;;;;;8.00;4.68;;;;;;;9.29;50.00;102428.09;4978560;28;102303;-50
2022/03/23 11:38:11;;;;;;;6.95;4.30;;;;;;;9.29;50.23;102428.09;4992116;28;101941;-50
2022/03/23 11:40:40;;;;;;;5.50;4.53;;;;;;;9.28;50.91;102431.88;4974081;28;103874;-49
2022/03/23 11:43:09;;;;;;;5.50;4.20;;;;;;;9.29;50.32;102428.09;4990066;28;102452;-49
2022/03/23 11:45:37;;;;;;;6.13;4.40;;;;;;;9.28;50.59;102415.56;4988271;28;102411;-50
2022/03/23 11:48:21;;;;;;;6.97;4.80;;;;;;;9.29;50.85;102406.34;4989400;28;102217;-49
2022/03/23 11:51:01;;;;;;;6.07;4.50;;;;;;;9.28;50.69;102404.72;4979609;28;103950;-50